Kezdőlap
METAR-TAF:

METAR-TAF

Repülőterek :

Aviano, Olaszország

földrajzi szélesség: 46-02N, földrajzi hosszúság: 012-36E, magasság: 128 m

METAR: hiányzik

Idő: 02:52 (00:52 UTC)

Előrejelzés

A jelentés 7 órával és 52 perccel ezelõtt készült, 17:00 UTC
Az előrejelzés 03-én 18 óra UTC és 04-én 03 óra UTC között érvényes
Különbözõ irányokból fújó szél 5 kt
Látótávolság 10 km, vagy több
Szórványos felhőzet 8000 lábon
03-én 21 óra UTC és 03-én 24 óra UTC között fokozatosan kialakuló
Látótávolság 10 km, vagy több
Szórványos felhőzet 3000 lábon
Szórványos felhőzet 7000 lábon

TAF: LIPA 031700Z 0318/0403 VRB05KT 9999 SCT080 BECMG 0321/0324 9999 SCT030 SCT070

Meteorológiai megfigyelések és előrejelzések több, mint 4000 repülőtéren (METAR és TAF jelentéseket).

A térképen piros és sárga pontok jelzik az elérhető meteorológiai állomásokat.

Mozgassa az egeret a pont fölött, hogy megjelenjen az állomás neve.

Azután kattintson az időjárási megfigyelések és előrejelzések megtekintéséhez.

A térkép megváltoztatása: kattintson a fekete keresztel jelölt zöld gombra ráközelítéshez, a vonallal jelölt zöld gombra távolításhoz, vagy a zöld nyilakra a szomszédos térképek eléréséhez.


METAR-TAF: